Portada
METAR-TAF:

METAR-TAF

Aeropuertos :

Sankt Moritz, Suiza

latitud: 46-32-03N, longitud: 9-53-03E, altitud: 1707 m

Observación

El informe se hizo hace 26 minutos, a las 14:20 UTC
Viento 8 kt del norte-noreste
Temperatura 12°C
Humedad 40%
Presión 1018 hPa
Visibilidad 10 km o más
Escasas nubes a una altura de 6500 ft
Cielo nuboso a una altura de 7500 ft

METAR: LSZS 131420Z 03008KT 9999 FEW065 BKN075 12/M01 Q1018 RMK R TL170

Hora: 16:46 (14:46 UTC)

Pronóstico

El informe se hizo hace 21 minutos, a las 14:25 UTC
Pronóstico válido del 13 a las 15 UTC al 13 a las 24 UTC
Viento 7 kt del norte-noreste
Visibilidad 10 km o más
Escasas nubes a una altura de 5500 ft
Cielo nuboso a una altura de 6500 ft
Evolucionando progresivamente
del 13 a las 15 UTC al 13 a las 18 UTC
Visibilidad 10 km o más
sin nubes por debajo de 1500 m y sin presencia de cumulonimbus.

TAF: LSZS 131425Z 1315/1324 03007KT 9999 FEW055 BKN065 TX13/1315Z BECMG 1315/1318 CAVOK

Observaciones y pronósticos meteorológicos de más de 4000 aeropuertos (mensajes METAR y TAF).

Los puntos amarillos y rojos representan las estaciones disponibles.

Ponga el ratón en el punto deseado para ver el nombre de la estación.

Haga clic para ver las observaciones y los pronósticos meteorológicos.

Para cambiar el mapa : haga clic en los botones verdes con una cruz de color negro para hacer un zoom, en el botón verde con un guión para alejar o en las flechas verdes para mapas adyacentes.


METAR-TAF: